Sycamore, Ohio
Current Conditions -  °F | °C
As of 4:53 PM on Sunday 21 Dec 2014 (Local Time) from KMNN Reporting Station
Haze Haze  
Wind Chill: 26°   Ceiling: Unl
Heat Index: 32°   Visibility: 5mi
Dew Point: 23°   Wind: 7mph
Humidity: 69%   Direction: 170°S
Pressure: 30.2"   Gusts: NA
Location:  40.95°N, 83.17°W
Report Text: KMNN 212153Z AUTO 17006KT 5SM HZ CLR 00/M05 A3020 RMK AO2 SLP241 T00001050 TSNO
Loading
Personal Weather Stations






























Interactive Weather Map New forecast layout! Learn more

10-Day Weather Forecast

Advertisements
Track Severe Weather on mobile